Bado Sarai, India

1:17 PM IST on December 03, 2016 (GMT +0530)
Lucknow | | Change Station

Elev 420 ft 26.76 °N, 80.89 °E | Updated 17 minutes ago

Mist
Mist
72 °F
Feels Like 72 °F
N
0
Wind Variable Wind from North

Today
High -- | Low -- °F
--% Chance of Precip.
Yesterday
High -- | Low -- °F
Precip. -- in
Pressure 30.09 in
Visibility 0.7 miles
Clouds
Dew Point 66 °F
Humidity 83%
Rainfall 0.00 in
Snow Depth Not available.
6:37 AM 5:10 PM
Waxing Crescent, 13% visible
METAR VILK 030730Z 00000KT 1200 R27/1300 BR NSC 22/19 Q1019 NOSIG
Pressure 30.09 in
Visibility 0.7 miles
Clouds
Dew Point 66 °F
Humidity 83%
Rainfall 0.00 in
Snow Depth Not available.
6:37 AM 5:10 PM
Waxing Crescent, 13% visible
METAR VILK 030730Z 00000KT 1200 R27/1300 BR NSC 22/19 Q1019 NOSIG

10-Day Weather Forecast

No radar image for this location.
×

Almanac

Astronomy

Dec. 03, 2016 Rise Set
Actual Time
Civil Twilight
Nautical Twilight
Astronomical Twilight
Moon
Length of Visible Light
Length of Day
Tomorrow will be .
, % of the Moon is Illuminated

Today's Extremes

Country Highs Country Lows

Community

WunderPhotos

Upload Photos

1,955,427 photos uploaded!

WunderBlog® & News

Nearby

Air Quality

  Air Quality AQ Index Pollutant
Not available.

Snow Depth

Station Depth Elevation

Earthquake Activity

City Distance Mag. Time & Date
Minimum magnitude displayed is 2.5.

Coastal Water Temperatures

Place Temperature

Stations

Nearby Weather Stations

Station Location Temp. Windchill Dew Point Humidity Wind Precip. Elev Updated Type